Bondville, VT (05340)

1:01 PM EST on November 24, 2014 (GMT -0500)
half way up Stratton Mountain | Change Station
CLOSE
Current Station
Personal Weather Station
Location: Bondville, VT
Elevation: 2550 ft
Nearby Weather Stations
Active Advisory: Winter Storm Watch Active Notice: Public Information Statement

Elev 2550 ft 43.11 °N, 72.92 °W | Updated 1 minute ago

Overcast
Overcast
56.9 °F
Feels Like 56.9 °F
N
5.0
Wind Variable Wind from SSE
Gusts 14.0 mph

Today
High -- | Low -- °F
--% Chance of Precip.
Yesterday
High -- | Low -- °F
Precip. -- in
6:55 AM 4:20 PM
Waxing Crescent, 6% visible
Pressure 29.54 in
Visibility 10.0 miles
Clouds Scattered Clouds 2200 ft
Mostly Cloudy 3400 ft
Overcast 4700 ft
Dew Point 55 °F
Humidity 92%
Rainfall 0.45 in
Snow Depth Not available.
UV 1 out of 12
Pollen .10 out of 12
Air Quality Not available.
Flu Activity Not available.
METAR KVSF 241754Z AUTO 15008KT 10SM SCT022 BKN034 OVC047 15/13 A2953 RMK AO2 SLP003 60022 T01500133 10150 20022 56041

More Conditions Fewer Conditions

Pressure 29.54 in
Visibility 10.0 miles
Clouds Scattered Clouds 2200 ft
Mostly Cloudy 3400 ft
Overcast 4700 ft
Dew Point 55 °F
Humidity 92%
Rainfall 0.45 in
Snow Depth Not available.
UV 1 out of 12
Pollen .10 out of 12
Air Quality Not available.
Flu Activity Not available.
METAR KVSF 241754Z AUTO 15008KT 10SM SCT022 BKN034 OVC047 15/13 A2953 RMK AO2 SLP003 60022 T01500133 10150 20022 56041

More Conditions Fewer Conditions

10-Day Weather Forecast

Almanac

Astronomy

Nov. 24, 2014 Rise Set
Actual Time
Civil Twilight
Nautical Twilight
Astronomical Twilight
Moon
Length of Visible Light
Length of Day
Tomorrow will be .
, % of the Moon is Illuminated

Today's Extremes

State Highs State Lows

Community

WunderPhotos

Upload Photos

1,773,381 photos uploaded!

WunderBlogs® & News

Nearby

Air Quality

  Air Quality AQ Index Pollutant
Not available.

Snow Depth

Station Depth Elevation

Earthquake Activity

City Distance Mag. Time & Date
Minimum magnitude displayed is 2.5.

Coastal Water Temperatures

Place Temperature

Nearby Weather Stations